BAW29 EHRD-EGLL
Flight info
| Callsign | BAW29 |
|---|---|
| Flight time | N/A |
| Altitude | 22000 |
| Route | ABNED Z344 AMRIV Q63 ARREK Y4 TEBRA TANET |
| Aircraft | A20N/M-SDE2E3FGHIRWXY/LB1 |
Departure
| Time | N/A |
|---|---|
| Airport | Rotterdam The Hague Airport (EHRD) |
Arrival
| Time | 2026-05-03 20:24 |
|---|---|
| Airport | London Heathrow Airport (EGLL) |
| Time | Latitude | Longitude | Altitude | Speed | Heading |
|---|---|---|---|---|---|
| 2026-05-03 20:15 | 51.32461 | 0.17153 | 9981 ft | 236 kts | 274° |
| 2026-05-03 20:15 | 51.32581 | 0.14579 | 9687 ft | 235 kts | 274° |
| 2026-05-03 20:15 | 51.32701 | 0.11976 | 9388 ft | 233 kts | 274° |
| 2026-05-03 20:15 | 51.32820 | 0.09391 | 9068 ft | 233 kts | 274° |
| 2026-05-03 20:16 | 51.32940 | 0.06756 | 8458 ft | 244 kts | 274° |
| 2026-05-03 20:16 | 51.33146 | 0.04039 | 8010 ft | 243 kts | 288° |
| 2026-05-03 20:16 | 51.34055 | 0.01864 | 7761 ft | 233 kts | 316° |
| 2026-05-03 20:16 | 51.35268 | 0.00204 | 7448 ft | 228 kts | 321° |
| 2026-05-03 20:17 | 51.36502 | -0.01371 | 7180 ft | 223 kts | 321° |
| 2026-05-03 20:17 | 51.37669 | -0.02880 | 7080 ft | 208 kts | 320° |
| 2026-05-03 20:17 | 51.38768 | -0.04329 | 6802 ft | 203 kts | 320° |
| 2026-05-03 20:17 | 51.39836 | -0.05760 | 6450 ft | 202 kts | 319° |
| 2026-05-03 20:18 | 51.40914 | -0.07218 | 5992 ft | 206 kts | 319° |
| 2026-05-03 20:18 | 51.42000 | -0.08696 | 5677 ft | 201 kts | 319° |
| 2026-05-03 20:18 | 51.43072 | -0.10159 | 5289 ft | 200 kts | 319° |
| 2026-05-03 20:18 | 51.44114 | -0.11585 | 4766 ft | 199 kts | 319° |
| 2026-05-03 20:19 | 51.45169 | -0.13031 | 4147 ft | 199 kts | 319° |
| 2026-05-03 20:19 | 51.46220 | -0.14473 | 3541 ft | 198 kts | 319° |
| 2026-05-03 20:19 | 51.47224 | -0.15907 | 3161 ft | 185 kts | 311° |
| 2026-05-03 20:19 | 51.47755 | -0.17596 | 3035 ft | 158 kts | 278° |
| 2026-05-03 20:20 | 51.47830 | -0.19280 | 3099 ft | 149 kts | 271° |
| 2026-05-03 20:20 | 51.47833 | -0.20925 | 3080 ft | 148 kts | 269° |
| 2026-05-03 20:20 | 51.47825 | -0.22604 | 2790 ft | 150 kts | 269° |
| 2026-05-03 20:20 | 51.47812 | -0.24255 | 2511 ft | 146 kts | 269° |
| 2026-05-03 20:21 | 51.47799 | -0.25900 | 2312 ft | 146 kts | 269° |
| 2026-05-03 20:21 | 51.47785 | -0.27522 | 2093 ft | 146 kts | 268° |
| 2026-05-03 20:21 | 51.47763 | -0.29137 | 1927 ft | 141 kts | 270° |
| 2026-05-03 20:21 | 51.47768 | -0.30662 | 1789 ft | 133 kts | 271° |
| 2026-05-03 20:22 | 51.47784 | -0.32122 | 1581 ft | 130 kts | 271° |
| 2026-05-03 20:22 | 51.47793 | -0.33566 | 1370 ft | 129 kts | 270° |
| 2026-05-03 20:22 | 51.47799 | -0.35020 | 1185 ft | 129 kts | 269° |
| 2026-05-03 20:22 | 51.47793 | -0.36450 | 1022 ft | 129 kts | 270° |
| 2026-05-03 20:23 | 51.47795 | -0.37891 | 819 ft | 128 kts | 270° |
| 2026-05-03 20:23 | 51.47791 | -0.39326 | 632 ft | 129 kts | 269° |
| 2026-05-03 20:23 | 51.47773 | -0.40747 | 473 ft | 127 kts | 268° |
| 2026-05-03 20:23 | 51.47761 | -0.42147 | 303 ft | 125 kts | 270° |
| 2026-05-03 20:24 | 51.47770 | -0.43574 | 147 ft | 124 kts | 270° |
| 2026-05-03 20:24 | 51.47772 | -0.44887 | 100 ft | 108 kts | 269° |
| 2026-05-03 20:24 | 51.47762 | -0.45643 | 90 ft | 24 kts | 268° |
| 2026-05-03 20:24 | 51.47759 | -0.45880 | 92 ft | 37 kts | 270° |
| 2026-05-03 20:25 | 51.47713 | -0.46148 | 92 ft | 7 kts | 163° |
| 2026-05-03 20:25 | 51.47661 | -0.46093 | 95 ft | 9 kts | 144° |
| 2026-05-03 20:25 | 51.47634 | -0.46072 | 93 ft | 4 kts | 159° |
| 2026-05-03 20:25 | 51.47611 | -0.46060 | 92 ft | 3 kts | 165° |
| 2026-05-03 20:26 | 51.47596 | -0.46058 | 92 ft | 2 kts | 185° |
| 2026-05-03 20:26 | 51.47579 | -0.46069 | 94 ft | 1 kts | 217° |
| 2026-05-03 20:26 | 51.47583 | -0.46127 | 96 ft | 9 kts | 276° |
| 2026-05-03 20:26 | 51.47591 | -0.46231 | 95 ft | 10 kts | 278° |
| 2026-05-03 20:27 | 51.47594 | -0.46343 | 97 ft | 10 kts | 270° |
| 2026-05-03 20:27 | 51.47594 | -0.46466 | 96 ft | 12 kts | 269° |
| 2026-05-03 20:27 | 51.47592 | -0.46610 | 96 ft | 14 kts | 268° |
| 2026-05-03 20:27 | 51.47588 | -0.46778 | 96 ft | 16 kts | 268° |
| 2026-05-03 20:28 | 51.47582 | -0.46976 | 98 ft | 19 kts | 268° |
| 2026-05-03 20:28 | 51.47582 | -0.47202 | 93 ft | 22 kts | 269° |
| 2026-05-03 20:28 | 51.47581 | -0.47460 | 92 ft | 24 kts | 270° |
| 2026-05-03 20:28 | 51.47578 | -0.47740 | 94 ft | 26 kts | 269° |
| 2026-05-03 20:29 | 51.47577 | -0.48044 | 95 ft | 26 kts | 269° |
| 2026-05-03 20:29 | 51.47575 | -0.48332 | 95 ft | 27 kts | 270° |
| 2026-05-03 20:29 | 51.47485 | -0.48477 | 96 ft | 18 kts | 174° |
| 2026-05-03 20:29 | 51.47329 | -0.48470 | 92 ft | 28 kts | 179° |
| 2026-05-03 20:30 | 51.47129 | -0.48478 | 92 ft | 23 kts | 179° |
| 2026-05-03 20:30 | 51.47005 | -0.48475 | 91 ft | 16 kts | 175° |
| 2026-05-03 20:30 | 51.46898 | -0.48474 | 95 ft | 14 kts | 199° |
| 2026-05-03 20:30 | 51.46876 | -0.48612 | 93 ft | 14 kts | 271° |
| 2026-05-03 20:31 | 51.46885 | -0.48746 | 93 ft | 7 kts | 305° |
| 2026-05-03 20:31 | 51.46911 | -0.48788 | 94 ft | 5 kts | 330° |
| 2026-05-03 20:31 | 51.46922 | -0.48788 | 93 ft | 1 kts | 0° |
| 2026-05-03 20:31 | 51.46928 | -0.48788 | 94 ft | 1 kts | 0° |
| 2026-05-03 20:32 | 51.46932 | -0.48788 | 95 ft | 0 kts | 0° |